createdAt,value
2022-07-25T00:00:19.165Z,46.14
2022-07-25T00:02:47.568Z,46.06
2022-07-25T00:05:17.316Z,46.17
2022-07-25T00:07:45.725Z,46.20
2022-07-25T00:10:14.180Z,46.08
2022-07-25T00:12:42.488Z,46.21
2022-07-25T00:15:11.976Z,46.10
2022-07-25T00:17:40.494Z,46.25
2022-07-25T00:20:10.459Z,46.26
2022-07-25T00:22:40.279Z,46.18
2022-07-25T00:25:09.272Z,46.23
2022-07-25T00:27:37.724Z,46.39
2022-07-25T00:30:07.084Z,46.43
2022-07-25T00:32:35.406Z,46.48
2022-07-25T00:35:03.866Z,46.65
2022-07-25T00:37:45.019Z,46.62
2022-07-25T00:40:15.121Z,46.93
2022-07-25T00:42:43.472Z,47.05
2022-07-25T00:45:12.371Z,47.14
2022-07-25T00:47:40.824Z,47.25
2022-07-25T00:50:09.996Z,47.41
2022-07-25T00:52:38.617Z,47.36
2022-07-25T00:55:08.138Z,47.29
2022-07-25T00:57:37.939Z,47.36
2022-07-25T01:00:08.042Z,47.40
2022-07-25T01:02:36.497Z,47.48
2022-07-25T01:05:05.492Z,47.41
2022-07-25T01:07:34.551Z,47.46
2022-07-25T01:10:02.903Z,47.36
2022-07-25T01:12:31.373Z,47.28
2022-07-25T01:15:01.104Z,47.25
2022-07-25T01:17:29.404Z,47.28
2022-07-25T01:19:57.746Z,47.30
2022-07-25T01:22:27.488Z,47.25
2022-07-25T01:24:55.742Z,47.30
2022-07-25T01:27:24.091Z,47.27
2022-07-25T01:29:52.321Z,47.22
2022-07-25T01:32:20.705Z,47.22
2022-07-25T01:34:49.099Z,47.36
2022-07-25T01:37:17.406Z,47.56
2022-07-25T01:39:47.132Z,47.38
2022-07-25T01:42:15.488Z,47.28
2022-07-25T01:44:43.737Z,47.42
2022-07-25T01:47:12.070Z,47.44
2022-07-25T01:49:40.531Z,47.50
2022-07-25T01:52:08.909Z,47.34
2022-07-25T01:54:37.335Z,47.38
2022-07-25T01:57:07.905Z,47.40
2022-07-25T01:59:39.234Z,47.28
2022-07-25T02:02:08.089Z,47.41
2022-07-25T02:04:37.264Z,47.29
2022-07-25T02:07:05.918Z,47.27
2022-07-25T02:09:34.848Z,47.25
2022-07-25T02:12:03.327Z,47.02
2022-07-25T02:14:33.216Z,46.99
2022-07-25T02:17:01.556Z,46.89
2022-07-25T02:19:29.890Z,46.95
2022-07-25T02:21:58.202Z,47.00
2022-07-25T02:24:26.448Z,46.82
2022-07-25T02:26:54.876Z,46.83
2022-07-25T02:29:23.163Z,46.73
2022-07-25T02:31:53.189Z,46.64
2022-07-25T02:34:21.552Z,46.56
2022-07-25T02:36:49.956Z,46.62
2022-07-25T02:39:18.254Z,46.61
2022-07-25T02:41:46.566Z,46.54
2022-07-25T02:44:14.911Z,46.56
2022-07-25T02:46:43.369Z,46.48
2022-07-25T02:49:14.650Z,46.58
2022-07-25T02:51:43.036Z,46.49
2022-07-25T02:54:11.715Z,46.54
2022-07-25T02:56:40.227Z,46.43
2022-07-25T02:59:08.526Z,46.46
2022-07-25T03:01:36.914Z,46.38
2022-07-25T03:04:05.804Z,46.31
2022-07-25T03:06:35.775Z,46.33
2022-07-25T03:09:04.679Z,46.20
2022-07-25T03:11:34.780Z,46.28
2022-07-25T03:14:03.826Z,46.31
2022-07-25T03:16:32.340Z,46.37
2022-07-25T03:19:00.680Z,46.34
2022-07-25T03:21:29.010Z,46.33
2022-07-25T03:23:58.993Z,46.28
2022-07-25T03:26:27.321Z,46.38
2022-07-25T03:28:55.619Z,46.38
2022-07-25T03:31:24.069Z,46.38
2022-07-25T03:33:52.440Z,46.28
2022-07-25T03:36:20.736Z,46.48
2022-07-25T03:38:49.143Z,46.31
2022-07-25T03:41:18.932Z,46.35
2022-07-25T03:43:47.231Z,46.38
2022-07-25T03:46:15.830Z,46.44
2022-07-25T03:48:44.157Z,46.28
2022-07-25T03:51:12.680Z,46.33
2022-07-25T03:53:54.780Z,46.41
2022-07-25T03:56:25.034Z,46.76
2022-07-25T03:58:53.403Z,46.50
2022-07-25T04:01:22.019Z,46.41
2022-07-25T04:03:50.695Z,46.54
2022-07-25T04:06:19.044Z,46.52
2022-07-25T04:08:47.558Z,46.34
2022-07-25T04:11:15.837Z,46.23
2022-07-25T04:13:45.680Z,45.89
2022-07-25T04:16:14.965Z,45.88
2022-07-25T04:18:50.727Z,45.48
2022-07-25T04:21:20.175Z,45.62
2022-07-25T04:23:48.553Z,45.48
2022-07-25T04:26:17.002Z,45.27
2022-07-25T04:28:46.779Z,45.31
2022-07-25T04:31:15.622Z,45.25
2022-07-25T04:33:44.238Z,45.25
2022-07-25T04:36:12.696Z,45.19
2022-07-25T04:38:41.036Z,45.36
2022-07-25T04:41:09.341Z,45.18
2022-07-25T04:43:37.651Z,45.09
2022-07-25T04:46:07.788Z,45.04
2022-07-25T04:48:36.271Z,45.15
2022-07-25T04:51:04.655Z,44.97
2022-07-25T04:53:34.402Z,45.03
2022-07-25T04:56:02.742Z,44.99
2022-07-25T04:58:32.845Z,45.03
2022-07-25T05:01:01.246Z,45.04
2022-07-25T05:03:31.219Z,45.00
2022-07-25T05:05:59.550Z,45.10
2022-07-25T05:08:27.907Z,45.16
2022-07-25T05:10:56.176Z,45.25
2022-07-25T05:13:24.878Z,44.96
2022-07-25T05:15:53.336Z,44.90
2022-07-25T05:18:22.105Z,44.87
2022-07-25T05:20:51.838Z,44.90
2022-07-25T05:23:20.138Z,44.63
2022-07-25T05:25:48.554Z,44.48
2022-07-25T05:28:16.870Z,44.33
2022-07-25T05:30:45.245Z,44.70
2022-07-25T05:33:13.635Z,44.48
2022-07-25T05:35:42.177Z,44.18
2022-07-25T05:38:11.919Z,44.25
2022-07-25T05:40:40.268Z,44.29
2022-07-25T05:43:08.852Z,44.06
2022-07-25T05:45:37.163Z,43.78
2022-07-25T05:48:05.859Z,43.82
2022-07-25T05:50:34.153Z,43.72
2022-07-25T05:53:02.488Z,43.80
2022-07-25T05:55:32.528Z,43.80
2022-07-25T05:58:02.373Z,43.59
2022-07-25T06:00:31.143Z,43.44
2022-07-25T06:03:00.897Z,43.21
2022-07-25T06:05:29.523Z,43.21
2022-07-25T06:07:57.890Z,43.22
2022-07-25T06:10:26.379Z,43.00
2022-07-25T06:12:56.142Z,42.81
2022-07-25T06:15:26.616Z,42.96
2022-07-25T06:17:55.655Z,42.92
2022-07-25T06:20:24.134Z,42.80
2022-07-25T06:22:53.519Z,42.45
2022-07-25T06:25:22.011Z,42.76
2022-07-25T06:27:50.450Z,42.32
2022-07-25T06:30:20.762Z,42.19
2022-07-25T06:32:49.276Z,42.03
2022-07-25T06:35:18.148Z,42.02
2022-07-25T06:37:46.653Z,41.88
2022-07-25T06:40:15.646Z,41.94
2022-07-25T06:42:46.055Z,40.44
2022-07-25T06:45:15.749Z,39.48
2022-07-25T06:47:50.486Z,40.17
2022-07-25T06:50:22.930Z,40.62
2022-07-25T06:52:54.849Z,40.26
2022-07-25T06:55:52.246Z,40.36
2022-07-25T06:58:23.420Z,40.39
2022-07-25T07:01:06.332Z,40.66
2022-07-25T07:03:40.530Z,39.84
2022-07-25T07:06:15.127Z,39.98
2022-07-25T07:08:44.523Z,40.28
2022-07-25T07:11:23.352Z,40.49
2022-07-25T07:13:53.284Z,40.17
2022-07-25T07:16:46.235Z,39.80
2022-07-25T07:19:30.310Z,40.09
2022-07-25T07:21:59.810Z,40.39
2022-07-25T07:24:28.419Z,40.09
2022-07-25T07:27:03.698Z,39.49
2022-07-25T07:32:47.957Z,38.63
2022-07-25T07:35:27.490Z,37.79
2022-07-25T07:37:58.082Z,37.13
2022-07-25T07:40:31.505Z,36.98
2022-07-25T07:43:02.445Z,36.15
2022-07-25T07:48:15.433Z,36.47
2022-07-25T07:50:45.948Z,36.59
2022-07-25T07:53:14.055Z,36.74
2022-07-25T07:55:44.182Z,36.37
2022-07-25T07:58:12.869Z,37.04
2022-07-25T08:00:41.267Z,36.48
2022-07-25T08:03:13.641Z,35.25
2022-07-25T08:05:45.850Z,35.24
2022-07-25T08:08:16.290Z,34.18
2022-07-25T08:10:48.808Z,33.96
2022-07-25T08:13:19.223Z,33.41
2022-07-25T08:15:49.455Z,33.33
2022-07-25T08:18:20.124Z,33.86
2022-07-25T08:20:51.157Z,34.47
2022-07-25T08:23:31.886Z,35.26
2022-07-25T08:26:04.904Z,35.60
2022-07-25T08:28:36.053Z,34.73
2022-07-25T08:31:19.600Z,34.91
2022-07-25T08:33:54.675Z,34.82
2022-07-25T08:36:34.852Z,35.09
2022-07-25T08:39:16.729Z,35.60
2022-07-25T08:41:49.730Z,36.49
2022-07-25T08:44:28.941Z,36.67
2022-07-25T08:47:22.288Z,37.55
2022-07-25T08:56:45.576Z,37.29
2022-07-25T09:00:19.533Z,37.16
2022-07-25T09:03:22.632Z,35.78
2022-07-25T09:06:03.054Z,35.54
2022-07-25T09:12:02.095Z,36.18
2022-07-25T09:14:49.225Z,36.43
2022-07-25T09:17:23.676Z,36.31
2022-07-25T09:23:10.419Z,37.11
2022-07-25T09:26:27.815Z,37.60
2022-07-25T09:33:16.291Z,38.33
2022-07-25T09:41:37.391Z,37.43
2022-07-25T09:44:29.021Z,36.94
2022-07-25T09:47:30.707Z,35.60
2022-07-25T09:50:15.234Z,35.52
2022-07-25T09:53:14.596Z,36.05
2022-07-25T09:55:48.976Z,36.64
2022-07-25T09:58:17.483Z,37.24
2022-07-25T10:00:47.067Z,37.50
2022-07-25T10:04:30.292Z,37.36
2022-07-25T10:10:38.024Z,35.82
2022-07-25T10:19:59.022Z,36.02
2022-07-25T10:22:58.534Z,36.76
2022-07-25T10:25:53.370Z,37.63
2022-07-25T10:30:21.259Z,37.95
2022-07-25T10:34:05.907Z,37.07
2022-07-25T10:38:00.465Z,35.65
2022-07-25T10:44:51.638Z,35.25
2022-07-25T10:47:38.406Z,34.44
2022-07-25T10:54:17.177Z,34.54
2022-07-25T11:00:21.973Z,35.61
2022-07-25T11:03:04.950Z,36.28
2022-07-25T11:05:36.318Z,37.33
2022-07-25T11:11:39.135Z,38.89
2022-07-25T11:14:17.962Z,39.37
2022-07-25T11:17:02.607Z,38.93
2022-07-25T11:20:03.183Z,38.20
2022-07-25T11:22:41.687Z,37.43
2022-07-25T11:28:48.987Z,37.00
2022-07-25T11:31:25.346Z,36.77
2022-07-25T11:34:21.594Z,35.80
2022-07-25T11:36:52.341Z,35.24
2022-07-25T11:40:08.463Z,35.40
2022-07-25T11:50:22.567Z,35.44
2022-07-25T12:23:29.870Z,40.90
2022-07-25T12:30:58.509Z,40.45
2022-07-25T12:33:31.190Z,40.47
2022-07-25T12:36:08.055Z,40.61
2022-07-25T12:43:28.918Z,42.10
2022-07-25T12:46:50.010Z,42.84
2022-07-25T12:49:21.822Z,43.72
2022-07-25T12:52:12.602Z,44.13
2022-07-25T12:54:45.558Z,44.22
2022-07-25T12:57:55.160Z,43.39
2022-07-25T13:00:27.480Z,42.90
2022-07-25T13:02:57.042Z,42.81
2022-07-25T13:05:27.534Z,42.51
2022-07-25T13:07:55.899Z,42.27
2022-07-25T13:10:24.254Z,42.58
2022-07-25T13:12:52.590Z,42.72
2022-07-25T13:15:23.397Z,42.77
2022-07-25T13:17:51.962Z,43.08
2022-07-25T13:20:20.291Z,43.52
2022-07-25T13:22:50.009Z,43.58
2022-07-25T13:25:18.502Z,41.93
2022-07-25T13:27:48.518Z,40.91
2022-07-25T13:30:16.908Z,40.46
2022-07-25T13:32:45.434Z,40.42
2022-07-25T13:35:17.689Z,41.24
2022-07-25T13:37:50.026Z,41.72
2022-07-25T13:40:18.379Z,42.57
2022-07-25T13:42:46.691Z,42.86
2022-07-25T13:45:15.111Z,43.00
2022-07-25T13:47:43.681Z,42.79
2022-07-25T13:50:11.988Z,41.39
2022-07-25T13:52:40.355Z,41.29
2022-07-25T13:55:11.469Z,40.37
2022-07-25T13:57:39.881Z,40.44
2022-07-25T14:00:09.413Z,39.96
2022-07-25T14:02:37.860Z,40.23
2022-07-25T14:05:06.728Z,40.29
2022-07-25T14:07:36.114Z,39.45
2022-07-25T14:10:06.035Z,36.94
2022-07-25T14:12:39.612Z,36.83
2022-07-25T14:15:09.278Z,36.98
2022-07-25T14:17:38.870Z,36.24
2022-07-25T14:20:08.676Z,35.93
2022-07-25T14:22:37.112Z,35.37
2022-07-25T14:25:05.991Z,35.00
2022-07-25T14:27:36.484Z,35.42
2022-07-25T14:30:05.379Z,35.79
2022-07-25T14:32:33.804Z,35.34
2022-07-25T14:35:02.561Z,35.15
2022-07-25T14:37:31.842Z,35.10
2022-07-25T14:40:00.404Z,35.48
2022-07-25T14:42:29.558Z,35.85
2022-07-25T14:44:59.343Z,36.30
2022-07-25T14:47:27.732Z,36.84
2022-07-25T14:49:56.111Z,37.09
2022-07-25T14:52:24.927Z,37.43
2022-07-25T14:54:53.231Z,37.54
2022-07-25T14:57:21.542Z,37.35
2022-07-25T14:59:49.935Z,37.85
2022-07-25T15:02:19.629Z,37.83
2022-07-25T15:04:47.989Z,38.06
2022-07-25T15:07:16.355Z,37.72
2022-07-25T15:09:44.812Z,37.82
2022-07-25T15:12:16.690Z,37.73
2022-07-25T15:14:45.730Z,37.18
2022-07-25T15:17:14.531Z,36.81
2022-07-25T15:19:44.279Z,37.08
2022-07-25T15:22:12.631Z,36.22
2022-07-25T15:25:06.762Z,35.95
2022-07-25T15:27:29.282Z,36.53
2022-07-25T15:29:57.536Z,36.92
2022-07-25T15:32:25.866Z,37.09
2022-07-25T15:34:55.512Z,37.31
2022-07-25T15:37:24.054Z,37.27
2022-07-25T15:39:52.358Z,37.50
2022-07-25T15:42:22.610Z,37.28
2022-07-25T15:45:09.050Z,37.28
2022-07-25T15:47:41.535Z,37.53
2022-07-25T15:50:11.605Z,37.80
2022-07-25T15:52:39.922Z,38.33
2022-07-25T15:55:08.750Z,38.24
2022-07-25T15:57:37.110Z,37.53
2022-07-25T16:00:08.104Z,37.71
2022-07-25T16:02:36.532Z,37.55
2022-07-25T16:05:05.679Z,37.64
2022-07-25T16:07:35.606Z,37.83
2022-07-25T16:10:03.958Z,38.10
2022-07-25T16:12:32.322Z,37.95
2022-07-25T16:15:00.650Z,38.18
2022-07-25T16:17:28.998Z,38.13
2022-07-25T16:19:57.412Z,37.05
2022-07-25T16:22:25.735Z,35.53
2022-07-25T16:24:55.439Z,35.19
2022-07-25T16:27:23.863Z,35.18
2022-07-25T16:29:54.467Z,35.50
2022-07-25T16:32:22.757Z,35.66
2022-07-25T16:34:51.717Z,35.33
2022-07-25T16:37:21.185Z,34.92
2022-07-25T16:39:49.566Z,35.24
2022-07-25T16:42:19.237Z,35.56
2022-07-25T16:44:47.903Z,36.16
2022-07-25T16:47:16.380Z,36.43
2022-07-25T16:49:44.764Z,36.96
2022-07-25T16:52:13.176Z,37.14
2022-07-25T16:54:42.752Z,37.47
2022-07-25T16:57:11.171Z,37.41
2022-07-25T16:59:40.922Z,38.14
2022-07-25T17:02:09.327Z,38.49
2022-07-25T17:04:40.896Z,38.73
2022-07-25T17:07:09.896Z,38.73
2022-07-25T17:09:38.148Z,39.26
2022-07-25T17:12:07.133Z,39.35
2022-07-25T17:14:36.216Z,39.42
2022-07-25T17:17:06.344Z,38.95
2022-07-25T17:19:39.692Z,38.93
2022-07-25T17:22:08.161Z,38.98
2022-07-25T17:24:37.006Z,39.37
2022-07-25T17:27:06.743Z,39.60
2022-07-25T17:29:36.958Z,39.78
2022-07-25T17:32:07.493Z,40.19
2022-07-25T17:34:35.898Z,40.68
2022-07-25T17:37:04.365Z,40.81
2022-07-25T17:39:36.546Z,40.68
2022-07-25T17:42:09.358Z,40.76
2022-07-25T17:44:37.780Z,40.72
2022-07-25T17:47:07.860Z,40.78
2022-07-25T17:49:36.357Z,40.97
2022-07-25T17:52:05.219Z,41.32
2022-07-25T17:54:33.754Z,41.42
2022-07-25T17:57:02.308Z,41.69
2022-07-25T17:59:30.584Z,41.59
2022-07-25T18:01:59.128Z,41.53
2022-07-25T18:04:28.954Z,41.50
2022-07-25T18:06:57.365Z,41.55
2022-07-25T18:09:25.655Z,41.75
2022-07-25T18:11:54.771Z,41.82
2022-07-25T18:14:23.377Z,41.81
2022-07-25T18:16:51.743Z,42.09
2022-07-25T18:19:20.135Z,42.24
2022-07-25T18:21:49.845Z,42.44
2022-07-25T18:24:18.275Z,42.71
2022-07-25T18:26:46.940Z,42.96
2022-07-25T18:29:15.258Z,43.42
2022-07-25T18:31:43.620Z,44.01
2022-07-25T18:34:12.312Z,44.77
2022-07-25T18:36:41.930Z,45.41
2022-07-25T18:39:11.742Z,45.98
2022-07-25T18:41:40.111Z,46.19
2022-07-25T18:44:08.751Z,46.46
2022-07-25T18:46:37.505Z,46.50
2022-07-25T18:49:06.094Z,46.80
2022-07-25T18:51:34.463Z,47.01
2022-07-25T18:54:02.835Z,47.16
2022-07-25T18:56:32.537Z,47.32
2022-07-25T18:59:01.091Z,47.49
2022-07-25T19:01:31.012Z,47.63
2022-07-25T19:03:59.394Z,47.63
2022-07-25T19:06:27.866Z,47.31
2022-07-25T19:08:56.193Z,47.05
2022-07-25T19:11:24.531Z,46.92
2022-07-25T19:13:54.222Z,46.90
2022-07-25T19:16:22.566Z,46.89
2022-07-25T19:18:52.167Z,46.86
2022-07-25T19:21:20.511Z,46.75
2022-07-25T19:23:51.231Z,46.51
2022-07-25T19:26:20.399Z,46.54
2022-07-25T19:28:50.214Z,46.52
2022-07-25T19:31:20.178Z,46.46
2022-07-25T19:33:49.425Z,46.40
2022-07-25T19:36:17.727Z,46.44
2022-07-25T19:38:46.080Z,46.35
2022-07-25T19:41:14.644Z,46.51
2022-07-25T19:43:43.021Z,46.64
2022-07-25T19:46:11.466Z,46.83
2022-07-25T19:48:41.283Z,46.73
2022-07-25T19:51:10.053Z,46.80
2022-07-25T19:53:38.538Z,46.94
2022-07-25T19:56:08.532Z,47.04
2022-07-25T19:58:39.117Z,47.12
2022-07-25T20:01:11.898Z,47.20
2022-07-25T20:03:41.947Z,47.18
2022-07-25T20:06:10.693Z,47.25
2022-07-25T20:08:40.276Z,47.34
2022-07-25T20:11:08.596Z,47.45
2022-07-25T20:13:37.353Z,47.63
2022-07-25T20:16:06.712Z,47.73
2022-07-25T20:18:35.144Z,47.87
2022-07-25T20:21:05.836Z,47.93
2022-07-25T20:23:34.334Z,47.96
2022-07-25T20:26:03.206Z,47.98
2022-07-25T20:28:32.182Z,48.00
2022-07-25T20:31:01.885Z,47.97
2022-07-25T20:33:30.647Z,47.96
2022-07-25T20:35:59.894Z,48.20
2022-07-25T20:38:31.176Z,48.28
2022-07-25T20:40:59.950Z,48.37
2022-07-25T20:43:28.711Z,48.49
2022-07-25T20:45:57.632Z,48.51
2022-07-25T20:48:26.364Z,48.50
2022-07-25T20:50:54.761Z,48.58
2022-07-25T20:53:23.940Z,48.53
2022-07-25T20:55:54.168Z,48.49
2022-07-25T20:58:22.835Z,48.57
2022-07-25T21:00:51.283Z,48.58
2022-07-25T21:03:19.566Z,48.66
2022-07-25T21:05:47.894Z,48.57
2022-07-25T21:08:16.671Z,48.82
2022-07-25T21:10:45.536Z,48.86
2022-07-25T21:13:16.296Z,49.08
2022-07-25T21:15:46.997Z,49.19
2022-07-25T21:18:15.516Z,49.25
2022-07-25T21:20:46.020Z,49.30
2022-07-25T21:23:15.357Z,49.37
2022-07-25T21:25:43.823Z,49.44
2022-07-25T21:28:12.205Z,49.53
2022-07-25T21:30:43.173Z,49.64
2022-07-25T21:33:14.789Z,49.71
2022-07-25T21:35:50.458Z,49.86
2022-07-25T21:38:26.373Z,49.96
2022-07-25T21:40:56.302Z,50.00
2022-07-25T21:43:25.229Z,50.04
2022-07-25T21:45:55.019Z,50.02
2022-07-25T21:48:44.072Z,50.10
2022-07-25T21:51:18.755Z,50.34
2022-07-25T21:53:49.065Z,50.48
2022-07-25T21:56:17.884Z,50.64
2022-07-25T21:58:46.561Z,50.86
2022-07-25T22:01:16.408Z,51.10
2022-07-25T22:03:45.074Z,51.29
2022-07-25T22:06:13.597Z,51.49
2022-07-25T22:08:41.919Z,51.61
2022-07-25T22:11:16.126Z,51.82
2022-07-25T22:13:58.723Z,52.14
2022-07-25T22:16:28.773Z,52.39
2022-07-25T22:18:57.515Z,52.74
2022-07-25T22:21:25.884Z,52.89
2022-07-25T22:23:54.262Z,52.99
2022-07-25T22:26:22.642Z,53.04
2022-07-25T22:28:51.257Z,53.27
2022-07-25T22:31:20.079Z,53.46
2022-07-25T22:33:49.927Z,53.45
2022-07-25T22:36:19.099Z,53.46
2022-07-25T22:38:47.716Z,53.43
2022-07-25T22:41:16.312Z,53.54
2022-07-25T22:43:57.925Z,53.67
2022-07-25T22:46:29.035Z,53.79
2022-07-25T22:48:59.867Z,53.92
2022-07-25T22:51:29.204Z,54.08
2022-07-25T22:53:57.955Z,54.17
2022-07-25T22:56:27.015Z,54.20
2022-07-25T22:58:56.558Z,54.37
2022-07-25T23:01:25.449Z,54.52
2022-07-25T23:03:53.883Z,54.61
2022-07-25T23:06:23.730Z,54.75
2022-07-25T23:08:52.983Z,54.78
2022-07-25T23:11:21.376Z,54.81
2022-07-25T23:13:49.754Z,54.77
2022-07-25T23:16:18.154Z,54.79
2022-07-25T23:18:46.765Z,54.89
2022-07-25T23:21:15.243Z,54.89
2022-07-25T23:23:45.096Z,54.94
2022-07-25T23:26:13.533Z,54.95
2022-07-25T23:28:41.944Z,55.07
2022-07-25T23:31:10.442Z,55.22
2022-07-25T23:33:39.063Z,55.28
2022-07-25T23:36:07.811Z,55.33
2022-07-25T23:38:36.099Z,55.30
2022-07-25T23:41:06.194Z,55.36
2022-07-25T23:43:57.728Z,55.32
2022-07-25T23:46:25.784Z,55.29
2022-07-25T23:48:58.313Z,55.36
2022-07-25T23:51:27.014Z,55.29
2022-07-25T23:53:55.456Z,55.40
2022-07-25T23:56:25.317Z,55.38
2022-07-25T23:58:53.668Z,55.42
